Terminal Aerodrome Forecast
Issued by NWS Billings, MT

Home | Current Version | Previous Version | Graphics & Text | Print | Product List | Glossary On
Versions: 1 2 3 4 5 6 7 8 9 10 11 12 13 14 15 16 17 18 19 20 21 22 23 24 25 26 27 28 29 30 31 32
782
FTUS45 KBYZ 271304 AAA
TAFMLS
TAF AMD
KMLS 271304Z 2713/2812 04012KT P6SM VCSH BKN018 BKN100
      TEMPO 2714/2717 OVC008
     FM272300 04008KT P6SM SCT015 SCT025 BKN050
     FM280700 05007KT P6SM VCFG SCT009 BKN180=

USA.gov is the U.S. government's official web portal to all federal, state and local government web resources and services.